KAKH/AKH METAR and TAF weather

Enter ICAO airport designator
Station Type Date Time Source
KAKH METAR 2021/05/11 00:54 UTC NOAA

KAKH 110054Z AUTO 00000KT 10SM CLR 20/18 A2995 RMK AO2 LTG DSNT NE AND NW SLP136 T02000178


Station Type Date Time Source
KAKH Decoded METAR 2021/05/11 00:54 UTC NOAA

GASTONIA MUNICIPAL AIRPORT, NC, United States (KAKH) 35-12N 81-09W 243M
May 10, 2021 - 08:54 PM EDT / 2021.05.11 0054 UTC
Wind: Calm:0
Visibility: 10 mile(s):0
Sky conditions: clear
Weather: Lightning observed
Temperature: 68.0 F (20.0 C)
Dew Point: 64.0 F (17.8 C)
Relative Humidity: 87%
Pressure (altimeter): 29.95 in. Hg (1014 hPa)
ob: KAKH 110054Z AUTO 00000KT 10SM CLR 20/18 A2995 RMK AO2 LTG DSNT NE AND NW SLP136 T02000178
cycle: 1

Station Type Date Time Source
KAKH TAF UTC NOAA

Error!

Example: see airport list